»·PEaware :: N1975S L71-KVGT

N1975S :: L71-KVGT

FLIGHT INFORMATION

Flight Status: Arrived
Operator: Privately registered:
United States
More flights under this callsign
Pilot: Nuno S. (3545)
Aircraft: CESSNA 172 SKYHAWK
(C172)
More flights by this aircraft type
Origin: L71 California City Mun
United States
Destination: KVGT North Las Vegas
United States
More flights between these airports :: More routes between these airports
Route: VFR
File this flight plan on PilotEdge
Remarks: / V /
Altitude:
(Current/Filed)
7,500ft
Speed:
(Current/Filed)
110kts
Departed: 11-May-14 05:32 PM
Arrived: 11-May-14 07:15 PM
Distance/Time
Traveled:
151nm/1:43
Distance/Time
To Go:
Arrived

Flight Plot

Page will automatically refresh every two minutes.


Map Options




Map Legend


Flown Route
Filed Route
Departure Airport
Arrival Airport
Navaid (VOR, NDB)
Fix

Horizontal Profiles

Position Reports

Time Latitude Longitude Heading Altitude Ground
Speed
11-May-14 17:06 35.150494 -118.015056 177 2457ft 0kts
11-May-14 17:07 35.150494 -118.015056 177 2457ft 0kts
11-May-14 17:08 35.150494 -118.015056 177 2457ft 0kts
11-May-14 17:09 35.150494 -118.015056 177 2457ft 0kts
11-May-14 17:10 35.150494 -118.015056 177 2457ft 0kts
11-May-14 17:11 35.150494 -118.015056 177 2457ft 0kts
11-May-14 17:12 35.150494 -118.015056 177 2457ft 0kts
11-May-14 17:13 35.150494 -118.015056 177 2457ft 0kts
11-May-14 17:14 35.150494 -118.015056 177 2457ft 0kts
11-May-14 17:15 35.150494 -118.015056 177 2457ft 0kts
11-May-14 17:16 35.150494 -118.015056 177 2457ft 0kts
11-May-14 17:17 35.150494 -118.015056 177 2457ft 0kts
11-May-14 17:18 35.150492 -118.015055 177 2457ft 0kts
11-May-14 17:19 35.150489 -118.015055 177 2457ft 0kts
11-May-14 17:20 35.150486 -118.015055 177 2457ft 0kts
11-May-14 17:21 35.150483 -118.015055 177 2457ft 0kts
11-May-14 17:22 35.150481 -118.015055 177 2457ft 0kts
11-May-14 17:23 35.150471 -118.015054 174 2457ft 0kts
11-May-14 17:24 35.150381 -118.014699 75 2457ft 0kts
11-May-14 17:25 35.150381 -118.014699 75 2457ft 0kts
11-May-14 17:26 35.151181 -118.014348 70 2457ft 8kts
11-May-14 17:27 35.151656 -118.012176 75 2457ft 5kts
11-May-14 17:28 35.152146 -118.009954 74 2457ft 7kts
11-May-14 17:29 35.153112 -118.006944 342 2457ft 5kts
11-May-14 17:30 35.151433 -118.020248 303 2802ft 64kts
11-May-14 17:31 35.161357 -117.999104 73 3680ft 90kts
11-May-14 17:32 35.176301 -117.978150 10 4353ft 81kts
11-May-14 17:33 35.197970 -117.978052 9 4934ft 84kts
11-May-14 17:34 35.213875 -117.958572 52 5801ft 81kts
11-May-14 17:35 35.224837 -117.933970 54 6619ft 81kts
11-May-14 17:36 35.241417 -117.915579 27 7306ft 81kts
11-May-14 17:37 35.257425 -117.895882 50 8020ft 84kts
11-May-14 17:38 35.268330 -117.870040 68 8855ft 89kts
11-May-14 17:39 35.269794 -117.843909 68 9251ft 98kts
11-May-14 17:40 35.282315 -117.816102 47 9308ft 99kts
11-May-14 17:41 35.297568 -117.789026 53 9351ft 98kts
11-May-14 17:42 35.314141 -117.765453 41 9438ft 94kts
11-May-14 17:43 35.333541 -117.743897 36 9563ft 93kts
11-May-14 17:44 35.352095 -117.721662 42 9412ft 94kts
11-May-14 17:45 35.371785 -117.700361 33 9187ft 94kts
11-May-14 17:46 35.393619 -117.679191 40 9131ft 100kts
11-May-14 17:47 35.416427 -117.652767 37 8579ft 112kts
11-May-14 17:48 35.440518 -117.626738 43 8188ft 115kts
11-May-14 17:49 35.460730 -117.595513 47 7712ft 116kts
11-May-14 17:50 35.482376 -117.565950 34 7435ft 116kts
11-May-14 17:51 35.509175 -117.547564 28 7490ft 111kts
11-May-14 17:52 35.537145 -117.531713 23 7475ft 110kts
11-May-14 17:53 35.561789 -117.509003 37 7475ft 111kts
11-May-14 17:54 35.586260 -117.485430 36 7390ft 111kts
11-May-14 17:55 35.607424 -117.456805 48 7029ft 113kts
11-May-14 17:56 35.626077 -117.428509 43 7131ft 103kts
11-May-14 17:57 35.648186 -117.408786 36 7340ft 98kts
11-May-14 17:58 35.670260 -117.386818 39 7725ft 102kts
11-May-14 17:59 35.691166 -117.361941 39 7838ft 105kts
11-May-14 18:00 35.714968 -117.341420 23 7927ft 106kts
11-May-14 18:01 35.743216 -117.326398 24 7699ft 111kts
11-May-14 18:02 35.772316 -117.315449 7 7756ft 108kts
11-May-14 18:03 35.798820 -117.298643 42 7636ft 106kts
11-May-14 18:04 35.811021 -117.264972 67 7684ft 96kts
11-May-14 18:05 35.817951 -117.230413 69 7659ft 104kts
11-May-14 18:06 35.827199 -117.196493 66 7666ft 105kts
11-May-14 18:07 35.840676 -117.164078 57 7856ft 111kts
11-May-14 18:08 35.855159 -117.130000 57 7555ft 112kts
11-May-14 18:09 35.872569 -117.098557 50 7603ft 111kts
11-May-14 18:10 35.891191 -117.067739 54 7381ft 113kts
11-May-14 18:11 35.907020 -117.034352 54 7310ft 113kts
11-May-14 18:12 35.922041 -117.000197 61 7423ft 113kts
11-May-14 18:13 35.933842 -116.963806 64 7380ft 114kts
11-May-14 18:14 35.946368 -116.928128 53 7310ft 112kts
11-May-14 18:15 35.967509 -116.899975 40 7319ft 110kts
11-May-14 18:16 35.990577 -116.875316 38 7213ft 104kts
11-May-14 18:17 36.009504 -116.846882 59 7195ft 110kts
11-May-14 18:18 36.021274 -116.812217 55 7373ft 106kts
11-May-14 18:19 36.037949 -116.781018 46 7637ft 107kts
11-May-14 18:20 36.060127 -116.757092 29 7532ft 106kts
11-May-14 18:21 36.086830 -116.741279 23 7739ft 112kts
11-May-14 18:22 36.114456 -116.722059 31 7710ft 116kts
11-May-14 18:23 36.139616 -116.697041 43 7696ft 118kts
11-May-14 18:24 36.162089 -116.667967 40 7621ft 117kts
11-May-14 18:25 36.182589 -116.636649 56 7262ft 119kts
11-May-14 18:26 36.193889 -116.598170 71 7228ft 118kts
11-May-14 18:27 36.203929 -116.560787 61 7275ft 113kts
11-May-14 18:28 36.216485 -116.525064 59 7308ft 113kts
11-May-14 18:29 36.226737 -116.497107 59 7360ft 113kts
11-May-14 18:34 36.283414 -116.342358 58 7637ft 113kts
11-May-14 18:35 36.297063 -116.306574 53 7607ft 117kts
11-May-14 18:36 36.314779 -116.272911 48 7565ft 118kts
11-May-14 18:37 36.333676 -116.240324 47 7506ft 117kts
11-May-14 18:38 36.354062 -116.209112 40 7438ft 115kts
11-May-14 18:39 36.375758 -116.182720 36 7491ft 109kts
11-May-14 18:40 36.398441 -116.156899 36 7101ft 110kts
11-May-14 18:41 36.421295 -116.131245 36 7182ft 113kts
11-May-14 18:42 36.445939 -116.104003 36 6792ft 119kts
11-May-14 18:43 36.470829 -116.076711 36 6117ft 118kts
11-May-14 18:44 36.495457 -116.049863 36 5990ft 116kts
11-May-14 18:45 36.520737 -116.023432 38 5648ft 118kts
11-May-14 18:46 36.536776 -115.989643 78 5557ft 120kts
11-May-14 18:47 36.537761 -115.950426 99 5818ft 106kts
11-May-14 18:48 36.526228 -115.914932 110 6423ft 113kts
11-May-14 18:49 36.512417 -115.879889 105 6734ft 108kts
11-May-14 18:50 36.502034 -115.844398 104 6998ft 106kts
11-May-14 18:51 36.493712 -115.807821 108 7236ft 106kts
11-May-14 18:52 36.482909 -115.773734 111 7555ft 108kts
11-May-14 18:53 36.469847 -115.738639 111 8123ft 116kts
11-May-14 18:54 36.454497 -115.699593 111 7820ft 133kts
11-May-14 18:55 36.457364 -115.657095 56 7514ft 127kts
11-May-14 18:56 36.473901 -115.620003 59 7395ft 116kts
11-May-14 18:57 36.473763 -115.580354 103 7425ft 128kts
11-May-14 18:58 36.459479 -115.540705 113 7466ft 129kts
11-May-14 18:59 36.440263 -115.503776 120 7200ft 124kts
11-May-14 19:00 36.419850 -115.469461 120 7403ft 122kts
11-May-14 19:01 36.398254 -115.433674 121 7151ft 135kts
11-May-14 19:02 36.372759 -115.396454 126 6631ft 146kts
11-May-14 19:03 36.346288 -115.359915 127 5668ft 139kts
11-May-14 19:04 36.319912 -115.324552 133 4823ft 136kts
11-May-14 19:05 36.290814 -115.295583 144 4261ft 131kts
11-May-14 19:06 36.260649 -115.273919 148 3970ft 114kts
11-May-14 19:07 36.236645 -115.252454 139 3664ft 104kts
11-May-14 19:08 36.213812 -115.231096 139 3372ft 103kts
11-May-14 19:09 36.191123 -115.209273 139 3115ft 103kts
11-May-14 19:10 36.169433 -115.187398 122 2951ft 95kts
11-May-14 19:11 36.183684 -115.173354 6 2693ft 68kts
11-May-14 19:12 36.199329 -115.183329 313 2378ft 63kts
11-May-14 19:13 36.208164 -115.194432 314 2208ft 15kts
11-May-14 19:14 36.208002 -115.195316 228 2208ft 2kts
11-May-14 19:15 36.207797 -115.197081 347 2208ft 6kts
11-May-14 19:16 36.207906 -115.197078 5 2208ft 0kts
11-May-14 19:17 36.207906 -115.197078 5 2208ft 0kts
11-May-14 19:18 36.207906 -115.197078 5 2208ft 0kts
11-May-14 19:19 36.207906 -115.197078 5 2208ft 0kts

Navigation Log

Ident Type
1. L71 Airport
2. KVGT Airport